PWSweather.com
Personal Weather Stations
Station Observations
ME1989
Sicily, Barcellona Pozzo Di GottoIT

SicilyBarcellona Pozzo Di GottoIT

Lat: 38.1487398, Lon: 15.2113962

Elevation: 131

Station Type: Peet Bros

Latest ConditionsUpdated 6:10:08 AM GMT+01:01 Thursday, Jul 31, 2014
Currently Today's Max Today's Min Today's Average
Temperature 74.1°F23.4°C 74.4°F23.6°C 71.8°F22.1°C 73.2°F22.9°C
Dew Point 65.2°F18.4°C 65.2°F18.4°C 62.4°F16.9°C 63.0°F17.2°C
Winds 8.3 mph W13.4 kmh W 8.3 mph W13.4 kmh W - 4.6 mph 7.4 kmh
Wind Gusts 14.0 mph22.5 kmh 14.0 mph22.5 kmh - -
Humidity 74% 74% 68% 70%
Pressure 29.80 in1009.1 mb 29.82 in1009.8 mb 29.79 in1008.8 mb -
Hour Temp Dew Point Humidity Winds Wind Gusts Pressure Precip Precip Rate Daily Precip Total
06:10 AM 74.1°F23.4°C 65.2°F18.4°C 74% 8.3 mph W13.4 kmh W 14.0 mph22.5 kmh 29.80 in1009.1 mb 0.00 in0.0 mm 0.00 in/hr0.0 mm/hr 0.00 in0.0 mm
06:00 AM 74.0°F23.3°C 63.2°F17.3°C 69% 2.2 mph W3.5 kmh W 4.6 mph7.4 kmh 29.80 in1009.1 mb 0.00 in0.0 mm 0.00 in/hr0.0 mm/hr 0.00 in0.0 mm
05:50 AM 73.6°F23.1°C 62.8°F17.1°C 69% 5.5 mph SW8.9 kmh SW 7.6 mph12.2 kmh 29.80 in1009.1 mb 0.00 in0.0 mm 0.00 in/hr0.0 mm/hr 0.00 in0.0 mm
05:40 AM 73.7°F23.2°C 62.9°F17.2°C 69% 3.1 mph SSW5.0 kmh SSW 5.2 mph8.4 kmh 29.80 in1009.1 mb 0.00 in0.0 mm 0.00 in/hr0.0 mm/hr 0.00 in0.0 mm
05:30 AM 72.8°F22.7°C 62.4°F16.9°C 70% 5.5 mph SSW8.9 kmh SSW 7.1 mph11.4 kmh 29.80 in1009.1 mb 0.00 in0.0 mm 0.00 in/hr0.0 mm/hr 0.00 in0.0 mm
05:20 AM 72.9°F22.7°C 63.0°F17.2°C 71% 4.1 mph SW6.6 kmh SW 5.7 mph9.2 kmh 29.80 in1009.1 mb 0.00 in0.0 mm 0.00 in/hr0.0 mm/hr 0.00 in0.0 mm
05:10 AM 73.3°F22.9°C 62.9°F17.2°C 70% 5.1 mph S8.2 kmh S 7.4 mph11.9 kmh 29.80 in1009.1 mb 0.00 in0.0 mm 0.00 in/hr0.0 mm/hr 0.00 in0.0 mm
05:00 AM 73.5°F23.1°C 63.1°F17.3°C 70% 4.1 mph S6.6 kmh S 6.3 mph10.1 kmh 29.80 in1009.1 mb 0.00 in0.0 mm 0.00 in/hr0.0 mm/hr 0.00 in0.0 mm
04:50 AM 73.3°F22.9°C 62.9°F17.2°C 70% 5.8 mph SSW9.3 kmh SSW 6.9 mph11.1 kmh 29.80 in1009.1 mb 0.00 in0.0 mm 0.00 in/hr0.0 mm/hr 0.00 in0.0 mm
04:40 AM 74.0°F23.3°C 62.8°F17.1°C 68% 4.4 mph SSW7.1 kmh SSW 6.6 mph10.6 kmh 29.80 in1009.1 mb 0.00 in0.0 mm 0.00 in/hr0.0 mm/hr 0.00 in0.0 mm
04:30 AM 74.2°F23.4°C 63.0°F17.2°C 68% 5.0 mph SW8.0 kmh SW 6.4 mph10.3 kmh 29.80 in1009.1 mb 0.00 in0.0 mm 0.00 in/hr0.0 mm/hr 0.00 in0.0 mm
04:20 AM 74.2°F23.4°C 63.4°F17.4°C 69% 4.2 mph SW6.8 kmh SW 6.3 mph10.1 kmh 29.80 in1009.1 mb 0.00 in0.0 mm 0.00 in/hr0.0 mm/hr 0.00 in0.0 mm
04:10 AM 74.3°F23.5°C 63.9°F17.7°C 70% 4.8 mph WSW7.7 kmh WSW 6.4 mph10.3 kmh 29.80 in1009.1 mb 0.00 in0.0 mm 0.00 in/hr0.0 mm/hr 0.00 in0.0 mm
04:00 AM 74.4°F23.6°C 63.6°F17.6°C 69% 3.5 mph WSW5.6 kmh WSW 5.5 mph8.9 kmh 29.79 in1008.8 mb 0.00 in0.0 mm 0.00 in/hr0.0 mm/hr 0.00 in0.0 mm
03:50 AM 74.2°F23.4°C 63.3°F17.4°C 69% 3.2 mph WSW5.1 kmh WSW 6.6 mph10.6 kmh 29.79 in1008.8 mb 0.00 in0.0 mm 0.00 in/hr0.0 mm/hr 0.00 in0.0 mm
03:40 AM 74.1°F23.4°C 63.3°F17.4°C 69% 3.8 mph SSW6.1 kmh SSW 4.9 mph7.9 kmh 29.79 in1008.8 mb 0.00 in0.0 mm 0.00 in/hr0.0 mm/hr 0.00 in0.0 mm
03:30 AM 73.9°F23.3°C 63.1°F17.3°C 69% 6.4 mph SW10.3 kmh SW 8.3 mph13.4 kmh 29.79 in1008.8 mb 0.00 in0.0 mm 0.00 in/hr0.0 mm/hr 0.00 in0.0 mm
03:20 AM 73.9°F23.3°C 63.1°F17.3°C 69% 2.9 mph SW4.7 kmh SW 4.8 mph7.7 kmh 29.79 in1008.8 mb 0.00 in0.0 mm 0.00 in/hr0.0 mm/hr 0.00 in0.0 mm
03:10 AM 73.4°F23.0°C 63.0°F17.2°C 70% 7.4 mph SSW11.9 kmh SSW 8.9 mph14.3 kmh 29.79 in1008.8 mb 0.00 in0.0 mm 0.00 in/hr0.0 mm/hr 0.00 in0.0 mm
03:00 AM 73.9°F23.3°C 63.1°F17.3°C 69% 4.0 mph SW6.4 kmh SW 6.3 mph10.1 kmh 29.79 in1008.8 mb 0.00 in0.0 mm 0.00 in/hr0.0 mm/hr 0.00 in0.0 mm
02:50 AM 74.0°F23.3°C 63.2°F17.3°C 69% 4.1 mph SSW6.6 kmh SSW 5.2 mph8.4 kmh 29.79 in1008.8 mb 0.00 in0.0 mm 0.00 in/hr0.0 mm/hr 0.00 in0.0 mm
02:40 AM 73.7°F23.2°C 62.9°F17.2°C 69% 1.0 mph SW1.6 kmh SW 4.2 mph6.8 kmh 29.79 in1008.8 mb 0.00 in0.0 mm 0.00 in/hr0.0 mm/hr 0.00 in0.0 mm
02:30 AM 73.5°F23.1°C 62.7°F17.1°C 69% 4.6 mph SSW7.4 kmh SSW 6.1 mph9.8 kmh 29.79 in1008.8 mb 0.00 in0.0 mm 0.00 in/hr0.0 mm/hr 0.00 in0.0 mm
02:20 AM 73.3°F22.9°C 62.5°F16.9°C 69% 6.7 mph SSW10.8 kmh SSW 8.3 mph13.4 kmh 29.79 in1008.8 mb 0.00 in0.0 mm 0.00 in/hr0.0 mm/hr 0.00 in0.0 mm
02:10 AM 73.0°F22.8°C 63.0°F17.2°C 71% 3.9 mph SW6.3 kmh SW 4.7 mph7.6 kmh 29.80 in1009.1 mb 0.00 in0.0 mm 0.00 in/hr0.0 mm/hr 0.00 in0.0 mm
02:00 AM 72.8°F22.7°C 62.5°F16.9°C 70% 6.4 mph S10.3 kmh S 7.9 mph12.7 kmh 29.80 in1009.1 mb 0.00 in0.0 mm 0.00 in/hr0.0 mm/hr 0.00 in0.0 mm
01:50 AM 72.4°F22.4°C 62.4°F16.9°C 71% 5.7 mph S9.2 kmh S 7.3 mph11.7 kmh 29.80 in1009.1 mb 0.00 in0.0 mm 0.00 in/hr0.0 mm/hr 0.00 in0.0 mm
01:40 AM 72.1°F22.3°C 62.6°F17.0°C 72% 4.2 mph S6.8 kmh S 5.2 mph8.4 kmh 29.80 in1009.1 mb 0.00 in0.0 mm 0.00 in/hr0.0 mm/hr 0.00 in0.0 mm
01:30 AM 72.1°F22.3°C 62.6°F17.0°C 72% 3.6 mph S5.8 kmh S 4.8 mph7.7 kmh 29.80 in1009.1 mb 0.00 in0.0 mm 0.00 in/hr0.0 mm/hr 0.00 in0.0 mm
01:20 AM 72.1°F22.3°C 62.6°F17.0°C 72% 5.3 mph SSW8.5 kmh SSW 7.0 mph11.3 kmh 29.80 in1009.1 mb 0.00 in0.0 mm 0.00 in/hr0.0 mm/hr 0.00 in0.0 mm
01:10 AM 71.8°F22.1°C 62.7°F17.1°C 73% 4.5 mph SSW7.2 kmh SSW 7.8 mph12.6 kmh 29.81 in1009.5 mb 0.00 in0.0 mm 0.00 in/hr0.0 mm/hr 0.00 in0.0 mm
01:00 AM 71.8°F22.1°C 62.7°F17.1°C 73% 4.1 mph S6.6 kmh S 4.7 mph7.6 kmh 29.81 in1009.5 mb 0.00 in0.0 mm 0.00 in/hr0.0 mm/hr 0.00 in0.0 mm
12:50 AM 71.8°F22.1°C 62.7°F17.1°C 73% 4.3 mph S6.9 kmh S 5.6 mph9.0 kmh 29.81 in1009.5 mb 0.00 in0.0 mm 0.00 in/hr0.0 mm/hr 0.00 in0.0 mm
12:40 AM 72.1°F22.3°C 63.0°F17.2°C 73% 3.4 mph S5.5 kmh S 4.1 mph6.6 kmh 29.81 in1009.5 mb 0.00 in0.0 mm 0.00 in/hr0.0 mm/hr 0.00 in0.0 mm
12:30 AM 72.1°F22.3°C 63.0°F17.2°C 73% 5.4 mph SSW8.7 kmh SSW 8.3 mph13.4 kmh 29.81 in1009.5 mb 0.00 in0.0 mm 0.00 in/hr0.0 mm/hr 0.00 in0.0 mm
12:20 AM 72.6°F22.6°C 63.0°F17.2°C 72% 4.0 mph S6.4 kmh S 5.7 mph9.2 kmh 29.81 in1009.5 mb 0.00 in0.0 mm 0.00 in/hr0.0 mm/hr 0.00 in0.0 mm
12:10 AM 72.9°F22.7°C 63.3°F17.4°C 72% 5.8 mph S9.3 kmh S 8.0 mph12.9 kmh 29.82 in1009.8 mb 0.00 in0.0 mm 0.00 in/hr0.0 mm/hr 0.00 in0.0 mm
12:00 AM 73.4°F23.0°C 63.0°F17.2°C 70% 4.5 mph SW7.2 kmh SW 6.5 mph10.5 kmh 29.82 in1009.8 mb 0.00 in0.0 mm 0.00 in/hr0.0 mm/hr 0.00 in0.0 mm